Reynosa, Mexico

7:37 AM EST on July 25, 2016 (GMT -0500)
McAllen Miller International | | Change Station

Elev 105 ft 26.18 °N, 98.24 °W | Updated 15 minutes ago

Haze
Haze
81 °F
Feels Like 87 °F
N
6
Wind Variable Wind from SE

Today
High -- | Low -- °F
--% Chance of Precip.
Yesterday
High -- | Low -- °F
Precip. -- in
Pressure 29.91 in
Visibility 2.5 miles
Clouds Clear
Heat Index 87 °F
Dew Point 76 °F
Humidity 85%
Rainfall 0.00 in
Snow Depth Not available.
6:55 AM 8:22 PM
Waning Gibbous, 66% visible
SPECI KMFE 251222Z 14005KT 2 1/2SM HZ CLR 27/24 A2991 RMK AO2 T02720244
Pressure 29.91 in
Visibility 2.5 miles
Clouds Clear
Heat Index 87 °F
Dew Point 76 °F
Humidity 85%
Rainfall 0.00 in
Snow Depth Not available.
6:55 AM 8:22 PM
Waning Gibbous, 66% visible
SPECI KMFE 251222Z 14005KT 2 1/2SM HZ CLR 27/24 A2991 RMK AO2 T02720244

10-Day Weather Forecast

Almanac

Astronomy

Jul. 25, 2016 Rise Set
Actual Time
Civil Twilight
Nautical Twilight
Astronomical Twilight
Moon
Length of Visible Light
Length of Day
Tomorrow will be .
, % of the Moon is Illuminated

Today's Extremes

Country Highs Country Lows

Community

WunderPhotos

Upload Photos

1,927,296 photos uploaded!

WunderBlog® & News

Nearby

Air Quality

  Air Quality AQ Index Pollutant
Not available.

Snow Depth

Station Depth Elevation

Earthquake Activity

City Distance Mag. Time & Date
Minimum magnitude displayed is 2.5.

Coastal Water Temperatures

Place Temperature

Stations

Nearby Weather Stations

Station Location Temp. Windchill Dew Point Humidity Wind Precip. Elev Updated Type